createdAt,value
2019-03-31T00:01:53.579Z,6.95
2019-03-31T00:04:24.818Z,6.77
2019-03-31T00:06:56.043Z,6.79
2019-03-31T00:09:27.294Z,6.81
2019-03-31T00:11:58.601Z,6.85
2019-03-31T00:14:30.787Z,6.88
2019-03-31T00:17:02.079Z,6.70
2019-03-31T00:19:33.329Z,6.41
2019-03-31T00:22:04.738Z,6.25
2019-03-31T00:24:36.035Z,6.08
2019-03-31T00:27:10.231Z,5.69
2019-03-31T00:29:41.537Z,5.42
2019-03-31T00:32:12.802Z,5.33
2019-03-31T00:34:44.033Z,5.46
2019-03-31T00:37:15.325Z,5.68
2019-03-31T00:39:46.643Z,5.64
2019-03-31T00:42:17.981Z,5.76
2019-03-31T00:44:49.312Z,5.78
2019-03-31T00:47:22.347Z,5.92
2019-03-31T00:49:53.599Z,6.03
2019-03-31T00:52:24.877Z,6.13
2019-03-31T00:54:56.238Z,6.15
2019-03-31T00:57:27.568Z,6.20
2019-03-31T00:59:58.664Z,6.26
2019-03-31T01:02:32.366Z,6.15
2019-03-31T01:05:04.015Z,6.07
2019-03-31T01:07:35.741Z,6.13
2019-03-31T01:10:07.550Z,6.10
2019-03-31T01:12:39.128Z,5.77
2019-03-31T01:15:15.786Z,5.82
2019-03-31T01:17:47.324Z,5.86
2019-03-31T01:20:19.085Z,5.85
2019-03-31T01:22:50.485Z,5.79
2019-03-31T01:25:22.442Z,5.85
2019-03-31T01:27:54.008Z,5.89
2019-03-31T01:30:25.515Z,5.85
2019-03-31T01:32:57.245Z,5.92
2019-03-31T01:35:29.089Z,5.90
2019-03-31T01:38:00.356Z,5.88
2019-03-31T01:40:31.881Z,5.85
2019-03-31T01:43:03.307Z,5.85
2019-03-31T01:45:34.695Z,5.80
2019-03-31T01:48:07.243Z,5.75
2019-03-31T01:50:38.451Z,5.74
2019-03-31T01:53:09.664Z,5.75
2019-03-31T01:55:41.115Z,5.71
2019-03-31T01:58:12.774Z,5.65
2019-03-31T02:00:47.544Z,5.62
2019-03-31T02:03:18.837Z,5.56
2019-03-31T02:05:50.302Z,5.59
2019-03-31T02:08:21.670Z,5.60
2019-03-31T02:10:52.967Z,5.58
2019-03-31T02:13:24.207Z,5.56
2019-03-31T02:15:55.467Z,5.50
2019-03-31T02:18:26.658Z,5.53
2019-03-31T02:20:59.089Z,5.45
2019-03-31T02:23:30.497Z,5.43
2019-03-31T02:26:01.680Z,5.37
2019-03-31T02:28:32.889Z,4.90
2019-03-31T02:31:04.134Z,4.92
2019-03-31T02:33:35.446Z,4.91
2019-03-31T02:36:06.765Z,4.95
2019-03-31T02:38:37.985Z,4.88
2019-03-31T02:41:09.451Z,4.88
2019-03-31T02:43:40.816Z,4.58
2019-03-31T02:46:12.059Z,4.26
2019-03-31T02:48:43.388Z,4.11
2019-03-31T02:51:14.933Z,4.17
2019-03-31T02:53:46.102Z,3.96
2019-03-31T02:56:19.543Z,3.81
2019-03-31T02:58:52.224Z,3.75
2019-03-31T03:01:26.014Z,3.58
2019-03-31T03:03:59.302Z,3.50
2019-03-31T03:06:33.176Z,3.52
2019-03-31T03:09:06.805Z,3.48
2019-03-31T03:11:38.184Z,3.45
2019-03-31T03:14:10.408Z,3.36
2019-03-31T03:16:41.727Z,3.26
2019-03-31T03:19:12.928Z,3.16
2019-03-31T03:21:44.152Z,3.11
2019-03-31T03:24:15.357Z,3.11
2019-03-31T03:26:46.577Z,3.26
2019-03-31T03:29:17.705Z,3.32
2019-03-31T03:31:48.878Z,3.29
2019-03-31T03:34:20.054Z,3.39
2019-03-31T03:36:51.168Z,3.55
2019-03-31T03:39:22.416Z,3.60
2019-03-31T03:41:54.662Z,3.64
2019-03-31T03:44:26.012Z,3.62
2019-03-31T03:46:57.254Z,3.43
2019-03-31T03:49:28.556Z,3.39
2019-03-31T03:52:00.168Z,3.48
2019-03-31T03:54:31.416Z,3.49
2019-03-31T03:57:02.680Z,3.50
2019-03-31T03:59:33.876Z,3.28
2019-03-31T04:02:05.084Z,3.18
2019-03-31T04:04:36.305Z,3.19
2019-03-31T04:07:07.641Z,3.01
2019-03-31T04:09:38.860Z,2.92
2019-03-31T04:12:10.113Z,2.95
2019-03-31T04:14:41.384Z,2.90
2019-03-31T04:17:12.649Z,2.94
2019-03-31T04:19:43.993Z,3.07
2019-03-31T04:22:15.255Z,3.25
2019-03-31T04:24:46.436Z,3.10
2019-03-31T04:27:19.127Z,3.07
2019-03-31T04:29:50.594Z,3.06
2019-03-31T04:32:21.885Z,3.00
2019-03-31T04:34:53.245Z,2.87
2019-03-31T04:37:24.623Z,2.86
2019-03-31T04:39:55.855Z,3.05
2019-03-31T04:42:27.047Z,3.23
2019-03-31T04:44:58.469Z,3.14
2019-03-31T04:47:29.725Z,2.89
2019-03-31T04:50:01.021Z,2.74
2019-03-31T04:52:32.242Z,2.79
2019-03-31T04:55:03.481Z,2.90
2019-03-31T04:57:34.696Z,2.89
2019-03-31T05:00:06.071Z,2.90
2019-03-31T05:02:37.306Z,2.90
2019-03-31T05:05:08.582Z,2.80
2019-03-31T05:07:39.800Z,2.77
2019-03-31T05:10:11.309Z,2.94
2019-03-31T05:12:42.544Z,3.15
2019-03-31T05:15:13.736Z,3.30
2019-03-31T05:17:44.998Z,3.36
2019-03-31T05:20:16.286Z,3.38
2019-03-31T05:22:47.513Z,3.48
2019-03-31T05:25:18.908Z,3.46
2019-03-31T05:27:50.158Z,3.41
2019-03-31T05:30:21.262Z,3.33
2019-03-31T05:32:52.547Z,3.22
2019-03-31T05:35:26.945Z,3.35
2019-03-31T05:37:57.124Z,3.50
2019-03-31T05:40:30.692Z,3.68
2019-03-31T05:43:01.314Z,3.82
2019-03-31T05:45:32.617Z,3.99
2019-03-31T05:48:03.877Z,4.13
2019-03-31T05:50:35.077Z,4.28
2019-03-31T05:53:06.337Z,4.44
2019-03-31T05:55:37.622Z,4.52
2019-03-31T05:58:08.843Z,4.68
2019-03-31T06:00:48.201Z,4.81
2019-03-31T06:03:19.495Z,4.83
2019-03-31T06:05:50.762Z,4.88
2019-03-31T06:08:22.029Z,5.03
2019-03-31T06:10:53.227Z,5.15
2019-03-31T06:13:24.492Z,5.29
2019-03-31T06:15:55.818Z,5.46
2019-03-31T06:18:27.073Z,5.57
2019-03-31T06:20:58.247Z,5.70
2019-03-31T06:23:29.491Z,5.84
2019-03-31T06:26:00.787Z,5.96
2019-03-31T06:28:31.990Z,6.10
2019-03-31T06:31:03.351Z,6.25
2019-03-31T06:33:34.581Z,6.35
2019-03-31T06:36:06.627Z,6.48
2019-03-31T06:38:37.904Z,6.63
2019-03-31T06:41:09.169Z,6.79
2019-03-31T06:43:40.825Z,6.98
2019-03-31T06:46:12.033Z,7.15
2019-03-31T06:48:43.276Z,7.35
2019-03-31T06:51:17.066Z,7.54
2019-03-31T06:53:47.644Z,7.65
2019-03-31T06:56:18.812Z,7.94
2019-03-31T06:58:50.085Z,8.14
2019-03-31T07:01:21.416Z,8.40
2019-03-31T07:03:52.729Z,8.77
2019-03-31T07:06:24.067Z,9.08
2019-03-31T07:08:55.252Z,9.53
2019-03-31T07:11:26.560Z,9.93
2019-03-31T07:13:57.785Z,10.13
2019-03-31T07:16:28.948Z,10.43
2019-03-31T07:19:00.281Z,10.62
2019-03-31T07:21:31.518Z,10.96
2019-03-31T07:24:02.794Z,11.22
2019-03-31T07:26:33.929Z,11.46
2019-03-31T07:29:05.267Z,11.72
2019-03-31T07:31:36.445Z,12.21
2019-03-31T07:34:07.740Z,12.55
2019-03-31T07:36:38.883Z,12.93
2019-03-31T07:39:10.193Z,13.23
2019-03-31T07:41:41.542Z,13.68
2019-03-31T07:44:15.335Z,14.18
2019-03-31T07:46:45.885Z,14.66
2019-03-31T07:49:17.200Z,14.92
2019-03-31T07:51:48.545Z,15.33
2019-03-31T07:54:19.751Z,15.49
2019-03-31T07:56:50.963Z,15.95
2019-03-31T07:59:22.290Z,16.22
2019-03-31T08:01:53.382Z,16.47
2019-03-31T08:04:24.719Z,16.86
2019-03-31T08:06:56.025Z,17.30
2019-03-31T08:09:27.167Z,17.54
2019-03-31T08:11:58.436Z,17.87
2019-03-31T08:14:29.717Z,17.95
2019-03-31T08:17:01.030Z,18.09
2019-03-31T08:19:32.270Z,18.53
2019-03-31T08:22:03.523Z,18.89
2019-03-31T08:24:43.341Z,19.25
2019-03-31T08:27:16.346Z,19.52
2019-03-31T08:29:59.614Z,19.95
2019-03-31T08:32:20.672Z,20.17
2019-03-31T08:34:52.082Z,20.23
2019-03-31T08:37:23.476Z,19.96
2019-03-31T08:39:54.729Z,20.15
2019-03-31T08:42:26.172Z,20.63
2019-03-31T08:44:57.498Z,20.87
2019-03-31T08:47:28.720Z,21.36
2019-03-31T08:50:02.153Z,21.73
2019-03-31T08:52:33.009Z,22.00
2019-03-31T08:55:04.307Z,22.45
2019-03-31T08:57:35.570Z,22.36
2019-03-31T09:00:09.496Z,22.38
2019-03-31T09:02:40.774Z,22.61
2019-03-31T09:05:12.505Z,22.69
2019-03-31T09:07:43.900Z,22.98
2019-03-31T09:10:15.461Z,23.25
2019-03-31T09:12:48.550Z,23.76
2019-03-31T09:15:19.749Z,23.51
2019-03-31T09:17:54.088Z,23.43
2019-03-31T09:20:24.123Z,23.34
2019-03-31T09:22:55.376Z,23.68
2019-03-31T09:25:26.683Z,23.26
2019-03-31T09:27:58.037Z,23.61
2019-03-31T09:30:29.369Z,23.58
2019-03-31T09:33:00.610Z,23.49
2019-03-31T09:35:31.842Z,23.87
2019-03-31T09:38:03.156Z,23.53
2019-03-31T09:40:34.407Z,23.89
2019-03-31T09:43:05.666Z,24.31
2019-03-31T09:45:37.355Z,24.97
2019-03-31T09:48:08.670Z,25.48
2019-03-31T09:50:40.074Z,25.61
2019-03-31T09:53:11.400Z,25.61
2019-03-31T09:55:42.714Z,25.06
2019-03-31T09:58:14.227Z,24.50
2019-03-31T10:00:52.929Z,24.64
2019-03-31T10:03:24.361Z,24.96
2019-03-31T10:06:04.420Z,25.47
2019-03-31T10:08:28.752Z,25.60
2019-03-31T10:11:02.857Z,25.49
2019-03-31T10:13:33.559Z,25.82
2019-03-31T10:16:04.874Z,26.43
2019-03-31T10:18:36.222Z,26.58
2019-03-31T10:21:07.419Z,26.27
2019-03-31T10:23:38.724Z,26.80
2019-03-31T10:26:10.087Z,25.94
2019-03-31T10:28:43.306Z,26.63
2019-03-31T10:31:14.572Z,26.60
2019-03-31T10:33:45.768Z,26.41
2019-03-31T10:36:16.902Z,25.27
2019-03-31T10:38:48.206Z,26.17
2019-03-31T10:41:19.442Z,26.25
2019-03-31T10:43:50.722Z,27.09
2019-03-31T10:46:22.034Z,27.14
2019-03-31T10:48:53.396Z,27.96
2019-03-31T10:51:24.677Z,28.63
2019-03-31T10:53:56.030Z,27.84
2019-03-31T10:56:27.361Z,28.27
2019-03-31T10:58:58.712Z,27.74
2019-03-31T11:01:29.983Z,28.05
2019-03-31T11:04:01.313Z,28.49
2019-03-31T11:06:32.620Z,28.50
2019-03-31T11:09:06.187Z,28.98
2019-03-31T11:11:37.524Z,28.82
2019-03-31T11:14:08.763Z,28.09
2019-03-31T11:16:39.959Z,28.10
2019-03-31T11:19:11.233Z,28.99
2019-03-31T11:22:01.344Z,29.45
2019-03-31T11:24:32.668Z,28.99
2019-03-31T11:27:03.913Z,28.79
2019-03-31T11:29:35.250Z,28.15
2019-03-31T11:32:06.724Z,28.51
2019-03-31T11:34:37.973Z,28.85
2019-03-31T11:37:13.834Z,29.27
2019-03-31T11:39:42.288Z,30.24
2019-03-31T11:42:13.617Z,29.60
2019-03-31T11:44:44.994Z,29.62
2019-03-31T11:47:16.339Z,29.81
2019-03-31T11:49:47.678Z,29.77
2019-03-31T11:52:18.980Z,29.91
2019-03-31T11:54:50.148Z,30.60
2019-03-31T11:57:21.475Z,30.87
2019-03-31T11:59:52.815Z,30.97
2019-03-31T12:02:27.483Z,30.81
2019-03-31T12:04:58.208Z,31.71
2019-03-31T12:07:29.484Z,32.37
2019-03-31T12:10:01.004Z,32.49
2019-03-31T12:12:32.229Z,31.89
2019-03-31T12:15:03.604Z,30.69
2019-03-31T12:17:34.748Z,30.98
2019-03-31T12:20:06.605Z,30.35
2019-03-31T12:22:37.902Z,29.80
2019-03-31T12:25:09.394Z,30.71
2019-03-31T12:27:40.530Z,29.15
2019-03-31T12:30:12.014Z,29.35
2019-03-31T12:32:43.216Z,30.45
2019-03-31T12:35:14.464Z,30.91
2019-03-31T12:37:45.740Z,31.42
2019-03-31T12:40:34.388Z,32.60
2019-03-31T12:43:06.053Z,33.67
2019-03-31T12:45:37.319Z,33.98
2019-03-31T12:48:08.695Z,33.91
2019-03-31T12:50:40.101Z,34.24
2019-03-31T12:53:11.354Z,35.28
2019-03-31T12:55:42.694Z,34.90
2019-03-31T12:58:13.906Z,33.14
2019-03-31T13:00:45.270Z,33.63
2019-03-31T13:03:16.669Z,32.32
2019-03-31T13:05:47.905Z,32.85
2019-03-31T13:08:19.166Z,33.48
2019-03-31T13:10:50.504Z,34.03
2019-03-31T13:13:21.833Z,32.72
2019-03-31T13:15:53.087Z,32.77
2019-03-31T13:18:27.710Z,31.59
2019-03-31T13:20:57.359Z,30.75
2019-03-31T13:23:28.552Z,29.19
2019-03-31T13:25:59.815Z,28.95
2019-03-31T13:28:31.114Z,29.07
2019-03-31T13:31:02.556Z,28.56
2019-03-31T13:33:33.822Z,27.89
2019-03-31T13:36:05.104Z,27.65
2019-03-31T13:38:36.447Z,26.40
2019-03-31T13:41:07.773Z,25.37
2019-03-31T13:43:39.169Z,24.15
2019-03-31T13:46:10.570Z,23.98
2019-03-31T13:48:41.955Z,23.15
2019-03-31T13:51:13.380Z,23.08
2019-03-31T13:53:44.754Z,23.33
2019-03-31T13:56:16.514Z,22.73
2019-03-31T13:58:52.415Z,22.15
2019-03-31T14:01:21.102Z,21.95
2019-03-31T14:03:52.427Z,21.77
2019-03-31T14:06:23.710Z,21.64
2019-03-31T14:08:54.920Z,21.69
2019-03-31T14:11:26.124Z,21.78
2019-03-31T14:13:57.517Z,21.46
2019-03-31T14:16:29.213Z,21.95
2019-03-31T14:19:00.640Z,21.80
2019-03-31T14:21:32.031Z,21.78
2019-03-31T14:24:03.301Z,21.75
2019-03-31T14:26:34.572Z,21.75
2019-03-31T14:29:06.002Z,21.99
2019-03-31T14:31:37.319Z,22.06
2019-03-31T14:34:08.685Z,22.50
2019-03-31T14:36:40.005Z,22.94
2019-03-31T14:39:11.641Z,23.54
2019-03-31T14:41:42.934Z,23.17
2019-03-31T14:44:14.177Z,22.73
2019-03-31T14:46:45.510Z,23.00
2019-03-31T14:49:18.480Z,23.92
2019-03-31T14:51:49.914Z,24.44
2019-03-31T14:54:21.196Z,24.54
2019-03-31T14:56:52.458Z,24.39
2019-03-31T14:59:23.741Z,23.87
2019-03-31T15:01:55.053Z,23.25
2019-03-31T15:04:26.296Z,22.47
2019-03-31T15:06:57.581Z,22.05
2019-03-31T15:09:28.871Z,21.33
2019-03-31T15:12:00.443Z,20.76
2019-03-31T15:14:31.671Z,20.36
2019-03-31T15:17:02.979Z,20.03
2019-03-31T15:19:34.243Z,19.58
2019-03-31T15:22:05.502Z,19.44
2019-03-31T15:24:38.782Z,19.31
2019-03-31T15:27:09.912Z,19.17
2019-03-31T15:29:41.078Z,18.92
2019-03-31T15:32:15.272Z,18.73
2019-03-31T15:34:46.716Z,18.49
2019-03-31T15:37:20.766Z,18.33
2019-03-31T15:39:53.502Z,18.22
2019-03-31T15:42:26.845Z,18.20
2019-03-31T15:44:58.675Z,18.29
2019-03-31T15:47:48.873Z,18.29
2019-03-31T15:50:21.384Z,18.36
2019-03-31T15:52:53.619Z,18.42
2019-03-31T15:55:25.600Z,18.31
2019-03-31T15:58:05.294Z,18.39
2019-03-31T16:00:37.532Z,18.28
2019-03-31T16:03:09.568Z,18.31
2019-03-31T16:05:41.306Z,18.34
2019-03-31T16:08:12.693Z,18.38
2019-03-31T16:10:43.984Z,18.29
2019-03-31T16:13:15.138Z,18.21
2019-03-31T16:15:48.692Z,18.11
2019-03-31T16:18:19.967Z,17.96
2019-03-31T16:20:52.968Z,17.86
2019-03-31T16:23:23.384Z,17.74
2019-03-31T16:25:56.209Z,17.71
2019-03-31T16:28:26.635Z,17.61
2019-03-31T16:30:57.519Z,17.69
2019-03-31T16:33:27.916Z,17.52
2019-03-31T16:35:59.895Z,17.34
2019-03-31T16:38:31.542Z,17.37
2019-03-31T16:41:03.001Z,17.40
2019-03-31T16:43:45.648Z,17.34
2019-03-31T16:46:21.491Z,17.33
2019-03-31T16:48:54.609Z,17.32
2019-03-31T16:51:29.322Z,17.11
2019-03-31T16:54:02.089Z,17.06
2019-03-31T16:56:33.648Z,17.00
2019-03-31T16:59:05.775Z,16.95
2019-03-31T17:01:41.794Z,16.90
2019-03-31T17:04:13.791Z,16.75
2019-03-31T17:06:45.686Z,16.60
2019-03-31T17:09:24.749Z,16.53
2019-03-31T17:12:04.325Z,16.41
2019-03-31T17:14:35.754Z,16.51
2019-03-31T17:17:07.955Z,16.31
2019-03-31T17:19:42.407Z,16.28
2019-03-31T17:22:12.978Z,16.13
2019-03-31T17:24:43.470Z,16.01
2019-03-31T17:27:14.242Z,15.94
2019-03-31T17:29:44.841Z,15.80
2019-03-31T17:32:15.194Z,15.63
2019-03-31T17:34:45.673Z,15.53
2019-03-31T17:37:16.166Z,15.36
2019-03-31T17:39:46.699Z,15.31
2019-03-31T17:42:17.158Z,15.22
2019-03-31T17:44:47.514Z,15.08
2019-03-31T17:47:17.945Z,15.01
2019-03-31T17:49:48.424Z,14.87
2019-03-31T17:52:18.828Z,14.76
2019-03-31T17:54:49.247Z,14.63
2019-03-31T17:57:19.678Z,14.52
2019-03-31T17:59:50.100Z,14.42
2019-03-31T18:02:20.693Z,14.38
2019-03-31T18:04:51.080Z,14.28
2019-03-31T18:07:21.526Z,14.20
2019-03-31T18:09:52.045Z,14.11
2019-03-31T18:12:22.445Z,14.02
2019-03-31T18:14:52.974Z,13.90
2019-03-31T18:17:23.377Z,13.63
2019-03-31T18:19:53.845Z,13.42
2019-03-31T18:22:24.325Z,13.16
2019-03-31T18:24:54.929Z,12.92
2019-03-31T18:27:25.364Z,12.70
2019-03-31T18:29:55.883Z,12.65
2019-03-31T18:32:26.411Z,12.43
2019-03-31T18:34:56.958Z,12.28
2019-03-31T18:37:27.538Z,12.21
2019-03-31T18:39:57.809Z,12.15
2019-03-31T18:42:28.257Z,12.11
2019-03-31T18:44:58.694Z,12.11
2019-03-31T18:47:29.072Z,12.14
2019-03-31T18:49:59.534Z,12.15
2019-03-31T18:52:29.958Z,12.14
2019-03-31T18:55:28.619Z,12.09
2019-03-31T18:58:30.121Z,12.03
2019-03-31T19:01:11.155Z,11.99
2019-03-31T19:03:55.492Z,11.83
2019-03-31T19:06:50.267Z,11.81
2019-03-31T19:09:32.876Z,11.69
2019-03-31T19:12:21.180Z,11.69
2019-03-31T19:15:16.519Z,11.67
2019-03-31T19:18:07.297Z,11.70
2019-03-31T19:20:52.104Z,11.54
2019-03-31T19:23:56.842Z,11.45
2019-03-31T19:26:51.868Z,11.38
2019-03-31T19:29:38.344Z,11.31
2019-03-31T19:32:26.562Z,11.11
2019-03-31T19:35:25.214Z,10.97
2019-03-31T19:38:17.408Z,10.95
2019-03-31T19:41:15.669Z,10.92
2019-03-31T19:44:00.580Z,10.96
2019-03-31T19:46:41.610Z,10.84
2019-03-31T19:49:31.016Z,10.79
2019-03-31T19:52:19.226Z,10.77
2019-03-31T19:55:07.186Z,10.81
2019-03-31T19:57:53.980Z,10.72
2019-03-31T20:00:55.751Z,10.70
2019-03-31T20:03:57.584Z,10.68
2019-03-31T20:06:45.204Z,10.61
2019-03-31T20:09:33.529Z,10.52
2019-03-31T20:12:22.871Z,10.50
2019-03-31T20:15:04.560Z,10.50
2019-03-31T20:18:06.237Z,10.51
2019-03-31T20:21:00.801Z,10.50
2019-03-31T20:23:40.400Z,10.54
2019-03-31T20:26:39.079Z,10.66
2019-03-31T20:29:31.261Z,10.84
2019-03-31T20:32:36.099Z,11.06
2019-03-31T20:35:24.031Z,11.23
2019-03-31T20:38:18.183Z,11.40
2019-03-31T20:41:19.772Z,11.61
2019-03-31T20:43:58.099Z,11.73
2019-03-31T20:46:28.586Z,11.94
2019-03-31T20:48:59.077Z,12.00
2019-03-31T20:51:29.797Z,12.07
2019-03-31T20:54:00.724Z,12.15
2019-03-31T20:56:31.381Z,12.15
2019-03-31T20:59:01.969Z,12.16
2019-03-31T21:01:32.542Z,12.17
2019-03-31T21:04:03.225Z,12.12
2019-03-31T21:06:33.798Z,12.15
2019-03-31T21:09:06.590Z,12.12
2019-03-31T21:11:37.206Z,12.12
2019-03-31T21:14:07.543Z,12.08
2019-03-31T21:16:38.117Z,12.09
2019-03-31T21:19:08.646Z,12.03
2019-03-31T21:21:39.101Z,12.02
2019-03-31T21:24:13.462Z,12.01
2019-03-31T21:26:47.262Z,11.97
2019-03-31T21:29:20.734Z,11.97
2019-03-31T21:31:55.967Z,11.89
2019-03-31T21:34:28.394Z,11.85
2019-03-31T21:37:03.844Z,11.86
2019-03-31T21:39:37.680Z,11.81
2019-03-31T21:42:10.649Z,11.76
2019-03-31T21:44:44.952Z,11.74
2019-03-31T21:47:16.228Z,11.73
2019-03-31T21:49:46.773Z,11.71
2019-03-31T21:52:17.401Z,11.68
2019-03-31T21:54:47.863Z,11.61
2019-03-31T21:57:18.352Z,11.60
2019-03-31T21:59:48.662Z,11.49
2019-03-31T22:02:19.156Z,11.46
2019-03-31T22:04:49.677Z,11.45
2019-03-31T22:07:20.607Z,11.46
2019-03-31T22:09:51.167Z,11.44
2019-03-31T22:12:21.649Z,11.47
2019-03-31T22:14:52.165Z,11.40
2019-03-31T22:17:22.675Z,11.41
2019-03-31T22:19:53.091Z,11.37
2019-03-31T22:22:23.589Z,11.32
2019-03-31T22:24:54.413Z,11.30
2019-03-31T22:27:24.875Z,11.29
2019-03-31T22:29:55.341Z,11.24
2019-03-31T22:32:25.951Z,11.23
2019-03-31T22:34:56.408Z,11.17
2019-03-31T22:37:27.125Z,11.07
2019-03-31T22:39:57.723Z,11.09
2019-03-31T22:42:28.298Z,11.10
2019-03-31T22:44:58.699Z,11.07
2019-03-31T22:47:29.182Z,11.02
2019-03-31T22:49:59.627Z,10.98
2019-03-31T22:52:30.353Z,10.93
2019-03-31T22:55:01.026Z,10.92
2019-03-31T22:57:31.523Z,10.88
2019-03-31T23:00:02.010Z,10.88
2019-03-31T23:02:32.441Z,10.85
2019-03-31T23:05:02.922Z,10.94
2019-03-31T23:07:33.615Z,10.81
2019-03-31T23:10:04.153Z,10.78
2019-03-31T23:12:34.624Z,10.76
2019-03-31T23:15:05.172Z,10.81
2019-03-31T23:17:35.765Z,10.77
2019-03-31T23:20:06.654Z,10.70
2019-03-31T23:22:37.158Z,10.65
2019-03-31T23:25:07.829Z,10.56
2019-03-31T23:27:38.309Z,10.50
2019-03-31T23:30:10.444Z,10.53
2019-03-31T23:32:40.954Z,10.52
2019-03-31T23:35:11.417Z,10.51
2019-03-31T23:37:42.040Z,10.44
2019-03-31T23:40:12.422Z,10.40
2019-03-31T23:42:42.871Z,10.35
2019-03-31T23:45:13.232Z,10.30
2019-03-31T23:47:43.730Z,10.23
2019-03-31T23:50:14.290Z,10.20
2019-03-31T23:52:44.798Z,10.19
2019-03-31T23:55:15.219Z,10.21
2019-03-31T23:57:46.158Z,10.17
